createdAt,value
2023-05-25T00:00:53.771Z,3.58
2023-05-25T00:03:28.791Z,3.95
2023-05-25T00:05:57.090Z,5.80
2023-05-25T00:08:23.934Z,3.30
2023-05-25T00:10:50.710Z,4.68
2023-05-25T00:13:17.412Z,4.10
2023-05-25T00:15:44.306Z,3.72
2023-05-25T00:18:11.692Z,4.82
2023-05-25T00:20:38.549Z,3.97
2023-05-25T00:23:05.491Z,4.78
2023-05-25T00:25:32.223Z,4.78
2023-05-25T00:27:58.936Z,3.97
2023-05-25T00:30:27.462Z,4.95
2023-05-25T00:32:55.562Z,5.63
2023-05-25T00:35:22.388Z,3.63
2023-05-25T00:37:50.360Z,4.07
2023-05-25T00:40:17.163Z,5.13
2023-05-25T00:42:44.138Z,4.90
2023-05-25T00:45:11.369Z,3.83
2023-05-25T00:47:39.600Z,4.20
2023-05-25T00:50:08.558Z,5.85
2023-05-25T00:52:35.423Z,3.75
2023-05-25T00:55:02.783Z,6.28
2023-05-25T00:57:34.091Z,3.88
2023-05-25T01:00:01.292Z,4.97
2023-05-25T01:02:29.654Z,3.53
2023-05-25T01:05:00.343Z,3.47
2023-05-25T01:07:28.942Z,4.15
2023-05-25T01:10:05.184Z,3.85
2023-05-25T01:12:35.102Z,4.43
2023-05-25T01:15:01.886Z,4.50
2023-05-25T01:17:30.770Z,3.80
2023-05-25T01:20:09.484Z,5.20
2023-05-25T01:22:38.455Z,3.75
2023-05-25T01:25:13.748Z,3.78
2023-05-25T01:27:43.834Z,4.22
2023-05-25T01:30:12.550Z,4.22
2023-05-25T01:32:39.354Z,3.70
2023-05-25T01:35:06.395Z,2.90
2023-05-25T01:37:33.345Z,5.07
2023-05-25T01:40:00.628Z,4.63
2023-05-25T01:42:27.376Z,3.65
2023-05-25T01:44:54.107Z,3.70
2023-05-25T01:47:24.049Z,3.90
2023-05-25T01:50:01.309Z,3.83
2023-05-25T01:52:36.414Z,3.60
2023-05-25T01:55:11.908Z,3.72
2023-05-25T01:57:41.497Z,3.13
2023-05-25T02:00:09.821Z,4.18
2023-05-25T02:02:36.556Z,2.90
2023-05-25T02:05:04.233Z,3.45
2023-05-25T02:07:31.869Z,2.83
2023-05-25T02:09:58.664Z,3.30
2023-05-25T02:12:25.414Z,4.05
2023-05-25T02:14:52.202Z,4.55
2023-05-25T02:17:19.668Z,3.85
2023-05-25T02:19:48.499Z,3.35
2023-05-25T02:22:16.753Z,4.13
2023-05-25T02:24:43.504Z,2.78
2023-05-25T02:27:12.769Z,4.28
2023-05-25T02:29:39.950Z,3.17
2023-05-25T02:32:06.830Z,3.35
2023-05-25T02:34:35.302Z,5.03
2023-05-25T02:37:02.052Z,5.43
2023-05-25T02:39:28.876Z,2.97
2023-05-25T02:41:55.635Z,4.45
2023-05-25T02:44:22.388Z,4.05
2023-05-25T02:46:49.164Z,3.63
2023-05-25T02:49:15.889Z,2.90
2023-05-25T02:51:42.603Z,3.53
2023-05-25T02:54:09.341Z,3.97
2023-05-25T02:56:36.946Z,2.95
2023-05-25T02:59:03.692Z,2.65
2023-05-25T03:01:31.175Z,3.58
2023-05-25T03:03:58.283Z,3.30
2023-05-25T03:06:26.263Z,3.60
2023-05-25T03:08:53.250Z,5.30
2023-05-25T03:11:20.029Z,3.72
2023-05-25T03:13:46.753Z,4.13
2023-05-25T03:16:13.540Z,3.70
2023-05-25T03:18:40.416Z,3.92
2023-05-25T03:21:08.139Z,4.00
2023-05-25T03:23:34.877Z,3.83
2023-05-25T03:26:01.635Z,5.72
2023-05-25T03:28:28.345Z,3.47
2023-05-25T03:30:55.037Z,4.63
2023-05-25T03:33:21.736Z,2.97
2023-05-25T03:35:48.862Z,3.40
2023-05-25T03:38:15.616Z,3.55
2023-05-25T03:40:42.432Z,5.47
2023-05-25T03:43:09.498Z,3.80
2023-05-25T03:45:36.197Z,4.60
2023-05-25T03:48:02.924Z,3.25
2023-05-25T03:50:29.692Z,3.17
2023-05-25T03:52:56.399Z,3.97
2023-05-25T03:55:23.096Z,4.07
2023-05-25T03:57:49.814Z,4.30
2023-05-25T04:00:16.955Z,3.80
2023-05-25T04:02:43.941Z,3.75
2023-05-25T04:05:10.862Z,3.63
2023-05-25T04:07:39.021Z,3.15
2023-05-25T04:10:06.424Z,3.42
2023-05-25T04:12:33.535Z,2.70
2023-05-25T04:15:00.261Z,2.72
2023-05-25T04:17:27.069Z,3.15
2023-05-25T04:19:53.990Z,3.08
2023-05-25T04:22:20.946Z,3.00
2023-05-25T04:24:48.272Z,3.55
2023-05-25T04:27:14.984Z,3.33
2023-05-25T04:29:42.051Z,3.30
2023-05-25T04:32:10.096Z,2.88
2023-05-25T04:34:37.727Z,3.53
2023-05-25T04:37:05.737Z,3.50
2023-05-25T04:39:32.957Z,4.03
2023-05-25T04:42:04.377Z,4.30
2023-05-25T04:44:32.024Z,3.33
2023-05-25T04:46:59.646Z,4.07
2023-05-25T04:49:26.752Z,4.95
2023-05-25T04:51:53.603Z,3.22
2023-05-25T04:54:20.437Z,4.30
2023-05-25T04:56:47.648Z,4.32
2023-05-25T04:59:14.394Z,6.40
2023-05-25T05:01:42.262Z,4.35
2023-05-25T05:04:09.176Z,6.15
2023-05-25T05:06:36.681Z,3.58
2023-05-25T05:09:03.595Z,3.90
2023-05-25T05:11:30.422Z,3.40
2023-05-25T05:13:57.191Z,3.60
2023-05-25T05:16:23.951Z,4.38
2023-05-25T05:18:50.746Z,3.13
2023-05-25T05:21:17.526Z,3.90
2023-05-25T05:23:44.942Z,3.42
2023-05-25T05:26:15.023Z,3.13
2023-05-25T05:28:42.017Z,3.65
2023-05-25T05:31:09.023Z,4.93
2023-05-25T05:33:35.872Z,2.95
2023-05-25T05:36:03.761Z,3.90
2023-05-25T05:38:30.910Z,4.00
2023-05-25T05:40:57.675Z,3.10
2023-05-25T05:43:24.448Z,3.35
2023-05-25T05:45:51.178Z,3.78
2023-05-25T05:48:17.876Z,6.45
2023-05-25T05:50:45.769Z,5.20
2023-05-25T05:53:13.350Z,3.35
2023-05-25T05:55:40.906Z,6.47
2023-05-25T05:58:07.702Z,7.30
2023-05-25T06:00:34.448Z,4.20
2023-05-25T06:03:01.367Z,4.78
2023-05-25T06:05:28.270Z,3.05
2023-05-25T06:07:55.021Z,4.57
2023-05-25T06:10:21.841Z,3.13
2023-05-25T06:12:48.554Z,5.22
2023-05-25T06:15:15.756Z,7.00
2023-05-25T06:17:43.898Z,3.40
2023-05-25T06:20:11.094Z,5.43
2023-05-25T06:22:37.836Z,3.38
2023-05-25T06:25:04.804Z,3.00
2023-05-25T06:27:31.550Z,3.47
2023-05-25T06:29:58.443Z,5.80
2023-05-25T06:32:25.259Z,4.15
2023-05-25T06:34:52.010Z,4.20
2023-05-25T06:37:18.909Z,3.20
2023-05-25T06:39:45.912Z,4.03
2023-05-25T06:42:13.752Z,4.75
2023-05-25T06:44:41.003Z,4.43
2023-05-25T06:47:07.897Z,3.85
2023-05-25T06:49:34.688Z,4.55
2023-05-25T06:52:01.700Z,5.28
2023-05-25T06:54:28.482Z,4.45
2023-05-25T06:56:55.350Z,4.82
2023-05-25T06:59:22.373Z,5.22
2023-05-25T07:01:49.660Z,3.90
2023-05-25T07:04:16.581Z,2.85
2023-05-25T07:06:44.713Z,3.78
2023-05-25T07:09:12.144Z,3.63
2023-05-25T07:11:38.956Z,6.18
2023-05-25T07:14:05.690Z,3.33
2023-05-25T07:16:32.459Z,4.68
2023-05-25T07:19:00.335Z,3.75
2023-05-25T07:21:27.688Z,3.55
2023-05-25T07:23:54.405Z,3.47
2023-05-25T07:26:23.058Z,4.97
2023-05-25T07:28:49.822Z,3.22
2023-05-25T07:31:18.567Z,3.90
2023-05-25T07:33:47.042Z,6.30
2023-05-25T07:36:13.973Z,3.60
2023-05-25T07:38:40.928Z,3.33
2023-05-25T07:41:07.945Z,4.25
2023-05-25T07:43:35.122Z,3.60
2023-05-25T07:46:02.619Z,5.63
2023-05-25T07:48:29.614Z,4.18
2023-05-25T07:50:56.565Z,4.45
2023-05-25T07:53:23.350Z,3.63
2023-05-25T07:55:50.063Z,6.47
2023-05-25T07:58:17.851Z,5.10
2023-05-25T08:00:50.118Z,4.97
2023-05-25T08:03:17.960Z,9.13
2023-05-25T08:05:45.382Z,4.45
2023-05-25T08:08:14.294Z,7.00
2023-05-25T08:10:41.181Z,7.03
2023-05-25T08:13:07.940Z,6.68
2023-05-25T08:15:34.705Z,4.97
2023-05-25T08:18:03.774Z,5.75
2023-05-25T08:20:31.302Z,5.28
2023-05-25T08:22:59.172Z,6.50
2023-05-25T08:25:25.982Z,5.20
2023-05-25T08:27:53.026Z,5.18
2023-05-25T08:30:19.759Z,4.38
2023-05-25T08:32:47.881Z,5.35
2023-05-25T08:35:16.288Z,5.57
2023-05-25T08:37:43.675Z,7.60
2023-05-25T08:40:16.488Z,9.15
2023-05-25T08:42:45.054Z,4.97
2023-05-25T08:45:19.633Z,5.32
2023-05-25T08:47:59.508Z,6.20
2023-05-25T08:50:27.369Z,3.72
2023-05-25T08:52:54.072Z,4.68
2023-05-25T08:55:20.819Z,4.53
2023-05-25T08:57:54.918Z,5.90
2023-05-25T09:00:30.223Z,4.18
2023-05-25T09:03:03.583Z,4.28
2023-05-25T09:05:30.524Z,4.28
2023-05-25T09:07:57.297Z,4.45
2023-05-25T09:10:24.630Z,3.30
2023-05-25T09:12:52.066Z,4.68
2023-05-25T09:15:18.813Z,4.78
2023-05-25T09:17:47.385Z,4.18
2023-05-25T09:20:14.365Z,5.28
2023-05-25T09:22:42.182Z,6.82
2023-05-25T09:25:09.425Z,4.32
2023-05-25T09:27:39.092Z,6.80
2023-05-25T09:30:06.707Z,4.43
2023-05-25T09:32:33.617Z,8.10
2023-05-25T09:35:13.700Z,4.32
2023-05-25T09:37:41.285Z,4.80
2023-05-25T09:40:11.623Z,3.90
2023-05-25T09:42:38.397Z,4.18
2023-05-25T09:45:05.781Z,6.53
2023-05-25T09:47:32.594Z,4.60
2023-05-25T09:50:00.241Z,7.13
2023-05-25T09:52:27.225Z,5.15
2023-05-25T09:54:55.008Z,4.10
2023-05-25T09:57:22.162Z,6.15
2023-05-25T09:59:48.886Z,4.35
2023-05-25T10:02:17.272Z,4.03
2023-05-25T10:04:44.917Z,5.18
2023-05-25T10:07:11.900Z,5.93
2023-05-25T10:09:41.959Z,4.57
2023-05-25T10:12:08.990Z,4.38
2023-05-25T10:14:37.054Z,6.22
2023-05-25T10:17:05.721Z,5.43
2023-05-25T10:19:47.054Z,6.97
2023-05-25T10:22:22.064Z,5.28
2023-05-25T10:24:57.894Z,7.82
2023-05-25T10:27:27.514Z,6.53
2023-05-25T10:29:56.299Z,8.38
2023-05-25T10:32:23.305Z,7.38
2023-05-25T10:34:51.318Z,5.90
2023-05-25T10:37:18.068Z,8.98
2023-05-25T10:39:45.712Z,5.43
2023-05-25T10:42:13.226Z,8.18
2023-05-25T10:44:43.073Z,8.48
2023-05-25T10:47:09.862Z,8.43
2023-05-25T10:49:56.167Z,7.85
2023-05-25T10:52:26.653Z,8.90
2023-05-25T10:54:56.332Z,7.50
2023-05-25T10:57:24.087Z,6.40
2023-05-25T10:59:59.682Z,9.27
2023-05-25T11:02:30.357Z,6.90
2023-05-25T11:05:28.700Z,11.73
2023-05-25T11:07:59.483Z,9.95
2023-05-25T11:10:52.955Z,10.27
2023-05-25T11:13:32.034Z,9.52
2023-05-25T11:16:27.146Z,8.13
2023-05-25T11:18:58.554Z,9.25
2023-05-25T11:21:28.431Z,8.10
2023-05-25T11:23:59.701Z,9.90
2023-05-25T11:26:28.036Z,7.40
2023-05-25T11:28:55.137Z,7.28
2023-05-25T11:31:43.745Z,8.05
2023-05-25T11:34:12.024Z,8.52
2023-05-25T11:36:39.365Z,8.02
2023-05-25T11:39:16.944Z,7.30
2023-05-25T11:41:55.365Z,6.32
2023-05-25T11:44:36.322Z,7.32
2023-05-25T11:47:09.091Z,7.03
2023-05-25T11:49:39.044Z,8.48
2023-05-25T11:52:08.917Z,8.02
2023-05-25T11:54:36.121Z,9.55
2023-05-25T11:57:03.083Z,7.30
2023-05-25T11:59:32.342Z,8.52
2023-05-25T12:02:02.782Z,6.72
2023-05-25T12:04:30.645Z,7.43
2023-05-25T12:07:04.636Z,6.88
2023-05-25T12:09:33.724Z,10.57
2023-05-25T12:12:00.876Z,10.10
2023-05-25T12:14:27.801Z,14.88
2023-05-25T12:16:54.707Z,8.68
2023-05-25T12:19:21.534Z,9.27
2023-05-25T12:21:51.141Z,7.60
2023-05-25T12:24:18.335Z,8.30
2023-05-25T12:26:49.232Z,7.90
2023-05-25T12:29:17.558Z,7.60
2023-05-25T12:31:46.820Z,8.57
2023-05-25T12:34:18.732Z,9.40
2023-05-25T12:36:52.857Z,6.63
2023-05-25T12:39:31.804Z,7.10
2023-05-25T12:41:59.546Z,10.40
2023-05-25T12:44:27.822Z,9.70
2023-05-25T12:46:55.893Z,8.18
2023-05-25T12:49:28.306Z,13.10
2023-05-25T12:51:55.216Z,11.55
2023-05-25T12:54:42.053Z,11.65
2023-05-25T12:57:10.334Z,9.73
2023-05-25T12:59:37.745Z,18.25
2023-05-25T13:02:08.280Z,8.85
2023-05-25T13:04:35.846Z,9.88
2023-05-25T13:07:02.689Z,8.13
2023-05-25T13:09:29.700Z,10.68
2023-05-25T13:11:57.037Z,9.82
2023-05-25T13:14:24.341Z,9.77
2023-05-25T13:16:51.472Z,8.18
2023-05-25T13:19:20.483Z,9.85
2023-05-25T13:21:49.694Z,11.32
2023-05-25T13:24:16.960Z,7.43
2023-05-25T13:26:45.651Z,7.82
2023-05-25T13:29:13.206Z,10.18
2023-05-25T13:31:39.949Z,8.73
2023-05-25T13:34:07.384Z,9.35
2023-05-25T13:36:34.806Z,9.10
2023-05-25T13:39:02.175Z,9.10
2023-05-25T13:41:28.964Z,11.05
2023-05-25T13:43:55.967Z,9.35
2023-05-25T13:46:34.204Z,7.45
2023-05-25T13:49:03.575Z,7.80
2023-05-25T13:51:31.046Z,13.02
2023-05-25T13:53:58.079Z,6.97
2023-05-25T13:56:25.221Z,11.05
2023-05-25T13:58:52.543Z,8.15
2023-05-25T14:01:20.205Z,7.28
2023-05-25T14:03:47.973Z,7.38
2023-05-25T14:06:15.181Z,8.43
2023-05-25T14:08:42.284Z,12.13
2023-05-25T14:11:09.346Z,9.73
2023-05-25T14:13:36.627Z,10.05
2023-05-25T14:16:03.860Z,11.52
2023-05-25T14:18:30.850Z,8.23
2023-05-25T14:20:57.581Z,8.75
2023-05-25T14:23:25.614Z,8.35
2023-05-25T14:25:52.484Z,8.88
2023-05-25T14:28:20.655Z,11.98
2023-05-25T14:30:47.487Z,8.27
2023-05-25T14:33:15.713Z,9.77
2023-05-25T14:35:43.222Z,8.77
2023-05-25T14:38:10.878Z,7.95
2023-05-25T14:40:37.662Z,8.15
2023-05-25T14:43:04.454Z,8.57
2023-05-25T14:45:31.224Z,7.75
2023-05-25T14:48:11.727Z,9.85
2023-05-25T14:50:44.161Z,8.10
2023-05-25T14:53:11.173Z,9.27
2023-05-25T14:55:37.925Z,7.95
2023-05-25T14:58:04.980Z,9.55
2023-05-25T15:00:31.693Z,9.40
2023-05-25T15:02:58.564Z,11.90
2023-05-25T15:05:25.574Z,9.60
2023-05-25T15:07:52.392Z,9.25
2023-05-25T15:10:19.566Z,8.98
2023-05-25T15:12:46.893Z,8.90
2023-05-25T15:15:14.685Z,6.13
2023-05-25T15:17:41.503Z,7.28
2023-05-25T15:20:08.589Z,8.57
2023-05-25T15:22:35.756Z,7.35
2023-05-25T15:25:02.896Z,7.28
2023-05-25T15:27:29.774Z,7.53
2023-05-25T15:29:56.642Z,6.38
2023-05-25T15:32:23.352Z,7.72
2023-05-25T15:34:51.396Z,8.50
2023-05-25T15:37:18.433Z,8.40
2023-05-25T15:39:46.419Z,7.50
2023-05-25T15:42:13.112Z,8.25
2023-05-25T15:44:39.830Z,7.80
2023-05-25T15:47:06.692Z,10.18
2023-05-25T15:49:36.805Z,6.82
2023-05-25T15:52:04.006Z,8.15
2023-05-25T15:54:30.754Z,8.48
2023-05-25T15:56:57.475Z,6.93
2023-05-25T15:59:24.195Z,6.90
2023-05-25T16:01:51.775Z,8.02
2023-05-25T16:04:19.480Z,7.85
2023-05-25T16:06:49.214Z,7.03
2023-05-25T16:09:16.951Z,6.95
2023-05-25T16:11:43.813Z,7.15
2023-05-25T16:14:10.752Z,6.40
2023-05-25T16:16:37.639Z,6.22
2023-05-25T16:19:04.530Z,7.22
2023-05-25T16:21:37.054Z,6.30
2023-05-25T16:24:05.238Z,6.10
2023-05-25T16:26:32.080Z,6.07
2023-05-25T16:28:58.831Z,6.15
2023-05-25T16:31:25.593Z,5.88
2023-05-25T16:33:52.345Z,5.43
2023-05-25T16:36:19.563Z,7.65
2023-05-25T16:38:46.848Z,6.00
2023-05-25T16:41:13.614Z,4.75
2023-05-25T16:43:40.367Z,5.75
2023-05-25T16:46:07.197Z,5.63
2023-05-25T16:48:34.320Z,5.50
2023-05-25T16:51:01.376Z,5.40
2023-05-25T16:53:28.401Z,8.10
2023-05-25T16:55:55.417Z,6.72
2023-05-25T16:58:24.074Z,7.32
2023-05-25T17:00:51.799Z,6.80
2023-05-25T17:03:19.513Z,7.25
2023-05-25T17:05:46.450Z,8.10
2023-05-25T17:08:13.360Z,7.00
2023-05-25T17:10:41.009Z,7.25
2023-05-25T17:13:07.764Z,6.70
2023-05-25T17:15:34.483Z,5.38
2023-05-25T17:18:01.365Z,5.95
2023-05-25T17:20:28.201Z,7.28
2023-05-25T17:22:55.031Z,8.10
2023-05-25T17:25:22.170Z,6.85
2023-05-25T17:27:49.959Z,7.07
2023-05-25T17:30:17.105Z,9.25
2023-05-25T17:32:43.833Z,12.07
2023-05-25T17:35:10.949Z,7.80
2023-05-25T17:37:38.373Z,8.35
2023-05-25T17:40:06.189Z,8.25
2023-05-25T17:42:33.119Z,6.60
2023-05-25T17:45:00.610Z,7.68
2023-05-25T17:47:31.886Z,8.95
2023-05-25T17:49:58.683Z,12.18
2023-05-25T17:52:26.229Z,8.35
2023-05-25T17:54:53.003Z,10.70
2023-05-25T17:57:21.336Z,10.98
2023-05-25T17:59:48.195Z,9.02
2023-05-25T18:02:15.036Z,8.15
2023-05-25T18:04:41.769Z,12.70
2023-05-25T18:07:08.567Z,10.00
2023-05-25T18:09:35.416Z,9.40
2023-05-25T18:12:02.267Z,9.55
2023-05-25T18:14:31.944Z,6.45
2023-05-25T18:16:58.793Z,11.02
2023-05-25T18:19:40.769Z,8.07
2023-05-25T18:22:10.810Z,11.10
2023-05-25T18:24:37.580Z,9.77
2023-05-25T18:27:04.769Z,10.00
2023-05-25T18:29:31.538Z,12.00
2023-05-25T18:31:58.353Z,8.32
2023-05-25T18:34:25.506Z,10.02
2023-05-25T18:36:52.276Z,11.05
2023-05-25T18:39:20.846Z,12.07
2023-05-25T18:41:52.660Z,14.93
2023-05-25T18:44:26.412Z,9.25
2023-05-25T18:46:55.490Z,7.97
2023-05-25T18:49:23.826Z,8.73
2023-05-25T18:51:52.272Z,6.43
2023-05-25T18:54:20.188Z,6.35
2023-05-25T18:56:47.306Z,6.88
2023-05-25T18:59:14.105Z,5.93
2023-05-25T19:01:40.847Z,7.45
2023-05-25T19:04:07.718Z,11.02
2023-05-25T19:06:34.525Z,8.05
2023-05-25T19:09:01.233Z,8.60
2023-05-25T19:11:27.992Z,9.20
2023-05-25T19:13:54.760Z,7.65
2023-05-25T19:16:21.613Z,5.93
2023-05-25T19:18:49.276Z,8.73
2023-05-25T19:21:16.553Z,6.90
2023-05-25T19:23:44.764Z,9.13
2023-05-25T19:26:11.543Z,6.53
2023-05-25T19:28:38.264Z,7.90
2023-05-25T19:31:05.036Z,6.68
2023-05-25T19:33:31.739Z,6.82
2023-05-25T19:35:58.489Z,7.68
2023-05-25T19:38:28.790Z,6.88
2023-05-25T19:41:01.202Z,6.40
2023-05-25T19:43:27.975Z,5.88
2023-05-25T19:45:54.707Z,7.25
2023-05-25T19:48:25.236Z,7.07
2023-05-25T19:50:52.914Z,6.22
2023-05-25T19:53:20.299Z,7.75
2023-05-25T19:55:47.680Z,6.90
2023-05-25T19:58:14.380Z,7.00
2023-05-25T20:00:41.097Z,8.88
2023-05-25T20:03:08.120Z,5.50
2023-05-25T20:05:34.948Z,5.18
2023-05-25T20:08:01.708Z,5.60
2023-05-25T20:10:28.642Z,5.35
2023-05-25T20:12:55.366Z,4.50
2023-05-25T20:15:22.789Z,6.03
2023-05-25T20:17:50.680Z,7.70
2023-05-25T20:20:18.160Z,6.03
2023-05-25T20:22:44.942Z,5.72
2023-05-25T20:25:11.691Z,7.30
2023-05-25T20:27:38.433Z,6.47
2023-05-25T20:30:05.767Z,8.10
2023-05-25T20:32:32.571Z,5.15
2023-05-25T20:34:59.336Z,5.45
2023-05-25T20:37:26.036Z,10.73
2023-05-25T20:39:52.975Z,8.32
2023-05-25T20:42:20.792Z,5.88
2023-05-25T20:44:47.554Z,8.60
2023-05-25T20:47:14.278Z,7.15
2023-05-25T20:49:41.116Z,7.95
2023-05-25T20:52:07.819Z,8.32
2023-05-25T20:54:36.303Z,6.57
2023-05-25T20:57:04.338Z,5.75
2023-05-25T20:59:31.746Z,5.25
2023-05-25T21:01:58.645Z,6.70
2023-05-25T21:04:25.524Z,5.47
2023-05-25T21:06:53.451Z,9.02
2023-05-25T21:09:21.278Z,6.35
2023-05-25T21:11:48.583Z,6.70
2023-05-25T21:14:15.492Z,6.35
2023-05-25T21:16:42.416Z,5.57
2023-05-25T21:19:09.166Z,6.13
2023-05-25T21:21:36.136Z,10.10
2023-05-25T21:24:03.034Z,4.45
2023-05-25T21:26:30.615Z,5.13
2023-05-25T21:28:57.618Z,5.35
2023-05-25T21:31:24.947Z,4.72
2023-05-25T21:33:53.725Z,5.68
2023-05-25T21:36:20.826Z,5.53
2023-05-25T21:38:47.587Z,6.57
2023-05-25T21:41:14.296Z,6.35
2023-05-25T21:43:41.015Z,6.50
2023-05-25T21:46:07.754Z,5.50
2023-05-25T21:48:34.521Z,7.43
2023-05-25T21:51:01.291Z,5.70
2023-05-25T21:53:28.020Z,6.30
2023-05-25T21:55:55.744Z,5.65
2023-05-25T21:58:22.469Z,6.50
2023-05-25T22:00:49.567Z,5.32
2023-05-25T22:03:16.450Z,5.53
2023-05-25T22:05:43.443Z,8.32
2023-05-25T22:08:10.435Z,5.65
2023-05-25T22:10:38.012Z,4.35
2023-05-25T22:13:05.178Z,6.68
2023-05-25T22:15:32.094Z,5.70
2023-05-25T22:17:59.027Z,5.18
2023-05-25T22:20:27.212Z,6.93
2023-05-25T22:22:54.017Z,4.55
2023-05-25T22:25:21.512Z,6.47
2023-05-25T22:27:48.412Z,7.28
2023-05-25T22:30:15.296Z,5.28
2023-05-25T22:32:42.233Z,4.63
2023-05-25T22:35:09.134Z,6.93
2023-05-25T22:37:35.883Z,4.95
2023-05-25T22:40:02.652Z,6.20
2023-05-25T22:42:29.408Z,5.53
2023-05-25T22:44:58.096Z,6.57
2023-05-25T22:47:24.979Z,4.40
2023-05-25T22:49:51.840Z,5.68
2023-05-25T22:52:18.581Z,8.27
2023-05-25T22:54:45.337Z,4.70
2023-05-25T22:57:12.086Z,6.32
2023-05-25T22:59:38.903Z,6.28
2023-05-25T23:02:05.869Z,4.72
2023-05-25T23:04:35.186Z,5.13
2023-05-25T23:07:02.037Z,7.28
2023-05-25T23:09:29.005Z,5.70
2023-05-25T23:11:55.709Z,5.63
2023-05-25T23:14:22.412Z,6.28
2023-05-25T23:16:49.350Z,4.70
2023-05-25T23:19:17.008Z,5.47
2023-05-25T23:21:44.068Z,4.88
2023-05-25T23:24:10.775Z,4.50
2023-05-25T23:26:37.479Z,7.35
2023-05-25T23:29:04.270Z,5.50
2023-05-25T23:31:31.289Z,4.95
2023-05-25T23:33:58.513Z,3.53
2023-05-25T23:36:28.627Z,4.80
2023-05-25T23:38:55.691Z,5.00
2023-05-25T23:41:23.110Z,5.38
2023-05-25T23:43:49.888Z,4.13
2023-05-25T23:46:17.374Z,4.40
2023-05-25T23:48:44.811Z,4.20
2023-05-25T23:51:11.588Z,4.88
2023-05-25T23:53:38.838Z,6.40
2023-05-25T23:56:05.804Z,4.60
2023-05-25T23:58:32.575Z,4.57
